createdAt,value
2023-05-23T00:02:08.898Z,8.20
2023-05-23T00:05:15.582Z,8.70
2023-05-23T00:08:19.454Z,8.40
2023-05-23T00:11:27.021Z,7.80
2023-05-23T00:14:34.150Z,8.43
2023-05-23T00:17:38.326Z,8.23
2023-05-23T00:20:44.176Z,9.07
2023-05-23T00:23:47.356Z,8.83
2023-05-23T00:26:50.432Z,8.30
2023-05-23T00:29:54.137Z,8.53
2023-05-23T00:32:57.739Z,8.60
2023-05-23T00:36:02.411Z,8.10
2023-05-23T00:39:05.997Z,8.20
2023-05-23T00:42:09.478Z,8.70
2023-05-23T00:45:13.469Z,8.40
2023-05-23T00:48:17.094Z,7.40
2023-05-23T00:51:22.769Z,8.30
2023-05-23T00:54:27.524Z,8.20
2023-05-23T00:57:30.717Z,9.10
2023-05-23T01:00:35.960Z,7.40
2023-05-23T01:03:39.220Z,11.03
2023-05-23T01:06:46.959Z,9.87
2023-05-23T01:09:50.993Z,9.60
2023-05-23T01:13:05.175Z,8.77
2023-05-23T01:16:15.003Z,8.00
2023-05-23T01:19:42.162Z,8.87
2023-05-23T01:23:06.931Z,7.77
2023-05-23T01:26:26.317Z,9.13
2023-05-23T01:29:34.047Z,8.00
2023-05-23T01:32:38.684Z,8.00
2023-05-23T01:35:43.806Z,7.67
2023-05-23T01:38:46.929Z,8.70
2023-05-23T01:41:51.059Z,8.30
2023-05-23T01:44:59.339Z,8.80
2023-05-23T01:48:03.441Z,8.60
2023-05-23T01:51:07.113Z,7.50
2023-05-23T01:54:10.830Z,8.03
2023-05-23T01:57:14.901Z,8.23
2023-05-23T02:00:19.975Z,7.73
2023-05-23T02:03:23.440Z,8.30
2023-05-23T02:06:26.722Z,7.87
2023-05-23T02:09:29.901Z,7.67
2023-05-23T02:12:32.997Z,8.93
2023-05-23T02:15:37.501Z,7.80
2023-05-23T02:18:40.577Z,7.93
2023-05-23T02:21:43.796Z,8.40
2023-05-23T02:24:46.934Z,9.30
2023-05-23T02:27:50.330Z,8.53
2023-05-23T02:30:54.881Z,9.13
2023-05-23T02:33:58.011Z,7.73
2023-05-23T02:37:01.252Z,8.43
2023-05-23T02:40:06.536Z,8.07
2023-05-23T02:43:09.657Z,8.93
2023-05-23T02:46:14.828Z,8.97
2023-05-23T02:49:17.934Z,8.93
2023-05-23T02:52:21.132Z,8.37
2023-05-23T02:55:24.318Z,8.80
2023-05-23T02:58:27.502Z,8.40
2023-05-23T03:01:32.161Z,8.90
2023-05-23T03:04:35.368Z,8.23
2023-05-23T03:07:38.614Z,8.10
2023-05-23T03:10:41.871Z,8.30
2023-05-23T03:13:45.105Z,7.80
2023-05-23T03:16:49.759Z,8.30
2023-05-23T03:19:53.284Z,9.17
2023-05-23T03:22:56.503Z,8.73
2023-05-23T03:25:59.981Z,9.40
2023-05-23T03:29:03.289Z,8.60
2023-05-23T03:32:08.548Z,9.13
2023-05-23T03:35:12.232Z,8.40
2023-05-23T03:38:15.924Z,9.57
2023-05-23T03:41:19.135Z,9.50
2023-05-23T03:44:22.541Z,8.70
2023-05-23T03:47:27.225Z,10.10
2023-05-23T03:50:30.494Z,8.30
2023-05-23T03:53:35.237Z,9.40
2023-05-23T03:56:39.782Z,8.07
2023-05-23T03:59:43.052Z,8.00
2023-05-23T04:02:48.639Z,9.70
2023-05-23T04:05:51.994Z,9.27
2023-05-23T04:08:55.196Z,9.40
2023-05-23T04:12:01.955Z,9.27
2023-05-23T04:15:05.892Z,8.70
2023-05-23T04:18:10.646Z,9.63
2023-05-23T04:21:13.891Z,10.10
2023-05-23T04:24:17.080Z,9.00
2023-05-23T04:27:20.290Z,8.57
2023-05-23T04:30:23.543Z,9.43
2023-05-23T04:33:28.295Z,9.60
2023-05-23T04:36:31.606Z,8.60
2023-05-23T04:39:34.748Z,9.43
2023-05-23T04:42:37.930Z,9.87
2023-05-23T04:45:42.457Z,9.53
2023-05-23T04:48:48.634Z,9.80
2023-05-23T04:51:51.847Z,10.77
2023-05-23T04:54:56.136Z,10.70
2023-05-23T04:57:59.558Z,11.30
2023-05-23T05:01:02.832Z,10.90
2023-05-23T05:04:07.669Z,9.80
2023-05-23T05:07:10.870Z,9.07
2023-05-23T05:10:17.133Z,10.10
2023-05-23T05:13:20.415Z,10.60
2023-05-23T05:16:23.558Z,10.30
2023-05-23T05:19:28.182Z,11.00
2023-05-23T05:22:31.448Z,11.00
2023-05-23T05:25:38.341Z,10.43
2023-05-23T05:28:41.908Z,10.53
2023-05-23T05:31:48.475Z,9.60
2023-05-23T05:34:52.948Z,10.27
2023-05-23T05:37:56.110Z,9.97
2023-05-23T05:40:59.340Z,10.40
2023-05-23T05:44:02.453Z,9.80
2023-05-23T05:47:06.130Z,9.20
2023-05-23T05:50:11.492Z,9.50
2023-05-23T05:53:15.392Z,10.60
2023-05-23T05:56:18.878Z,9.40
2023-05-23T05:59:22.046Z,10.10
2023-05-23T06:02:25.261Z,9.67
2023-05-23T06:05:29.992Z,11.27
2023-05-23T06:08:33.221Z,10.07
2023-05-23T06:11:39.295Z,10.13
2023-05-23T06:14:43.530Z,11.17
2023-05-23T06:17:46.889Z,10.20
2023-05-23T06:20:51.499Z,10.43
2023-05-23T06:23:54.838Z,8.90
2023-05-23T06:26:58.028Z,8.97
2023-05-23T06:30:01.193Z,10.00
2023-05-23T06:33:04.472Z,11.03
2023-05-23T06:36:09.358Z,9.83
2023-05-23T06:39:12.491Z,9.70
2023-05-23T06:42:16.405Z,9.03
2023-05-23T06:45:19.697Z,9.47
2023-05-23T06:48:22.984Z,10.03
2023-05-23T06:51:27.574Z,9.57
2023-05-23T06:54:30.689Z,8.38
2023-05-23T06:57:33.858Z,8.77
2023-05-23T07:00:37.005Z,8.80
2023-05-23T07:03:41.731Z,8.73
2023-05-23T07:06:46.318Z,8.80
2023-05-23T07:09:49.518Z,8.77
2023-05-23T07:12:52.722Z,8.60
2023-05-23T07:15:56.628Z,8.60
2023-05-23T07:18:59.824Z,8.70
2023-05-23T07:22:04.409Z,8.10
2023-05-23T07:25:09.444Z,9.18
2023-05-23T07:28:12.546Z,8.07
2023-05-23T07:31:15.797Z,9.13
2023-05-23T07:34:18.997Z,8.60
2023-05-23T07:37:23.554Z,11.25
2023-05-23T07:40:26.820Z,9.30
2023-05-23T07:43:29.922Z,11.60
2023-05-23T07:46:33.119Z,10.88
2023-05-23T07:49:36.432Z,11.02
2023-05-23T07:52:41.424Z,11.05
2023-05-23T07:55:44.650Z,10.80
2023-05-23T07:58:47.803Z,10.75
2023-05-23T08:01:51.424Z,10.68
2023-05-23T08:04:54.722Z,10.50
2023-05-23T08:07:59.282Z,9.85
2023-05-23T08:11:02.537Z,10.10
2023-05-23T08:14:05.783Z,10.32
2023-05-23T08:17:09.109Z,9.70
2023-05-23T08:20:13.348Z,9.65
2023-05-23T08:23:18.948Z,10.20
2023-05-23T08:26:23.069Z,10.32
2023-05-23T08:29:26.246Z,10.13
2023-05-23T08:32:29.552Z,10.68
2023-05-23T08:35:35.344Z,10.00
2023-05-23T08:38:39.908Z,10.00
2023-05-23T08:41:43.083Z,10.43
2023-05-23T08:44:46.378Z,10.32
2023-05-23T08:47:50.164Z,9.77
2023-05-23T08:50:54.755Z,10.30
2023-05-23T08:54:00.213Z,10.82
2023-05-23T08:57:03.806Z,9.23
2023-05-23T09:00:14.612Z,9.73
2023-05-23T09:03:18.591Z,10.93
2023-05-23T09:06:23.333Z,9.77
2023-05-23T09:09:27.958Z,9.90
2023-05-23T09:12:31.142Z,9.85
2023-05-23T09:15:34.295Z,9.23
2023-05-23T09:18:39.792Z,9.57
2023-05-23T09:21:45.946Z,9.63
2023-05-23T09:24:52.238Z,9.85
2023-05-23T09:27:56.777Z,10.20
2023-05-23T09:31:00.683Z,10.13
2023-05-23T09:34:04.045Z,11.25
2023-05-23T09:37:07.402Z,9.82
2023-05-23T09:40:14.525Z,10.60
2023-05-23T09:43:19.147Z,9.65
2023-05-23T09:46:23.515Z,10.20
2023-05-23T09:49:28.292Z,9.43
2023-05-23T09:52:37.354Z,10.68
2023-05-23T09:55:42.337Z,11.07
2023-05-23T09:58:48.604Z,9.68
2023-05-23T10:01:53.405Z,9.40
2023-05-23T10:04:58.340Z,10.30
2023-05-23T10:08:03.127Z,9.75
2023-05-23T10:11:59.134Z,10.20
2023-05-23T10:15:05.949Z,10.38
2023-05-23T10:18:17.510Z,9.48
2023-05-23T10:21:25.633Z,10.60
2023-05-23T10:24:30.194Z,10.27
2023-05-23T10:27:34.892Z,10.27
2023-05-23T10:30:38.892Z,9.85
2023-05-23T10:33:48.248Z,9.35
2023-05-23T10:36:58.268Z,10.93
2023-05-23T10:40:07.337Z,10.57
2023-05-23T10:43:20.052Z,9.73
2023-05-23T10:46:23.353Z,10.25
2023-05-23T10:49:40.082Z,10.85
2023-05-23T10:52:45.105Z,9.90
2023-05-23T10:55:50.707Z,10.32
2023-05-23T10:58:57.000Z,9.65
2023-05-23T11:02:02.422Z,9.82
2023-05-23T11:05:22.841Z,8.73
2023-05-23T11:08:35.444Z,9.35
2023-05-23T11:12:05.394Z,10.07
2023-05-23T11:15:22.495Z,9.43
2023-05-23T11:18:28.251Z,10.75
2023-05-23T11:21:32.207Z,8.80
2023-05-23T11:24:52.414Z,9.77
2023-05-23T11:27:55.671Z,9.63
2023-05-23T11:31:00.357Z,9.17
2023-05-23T11:34:03.738Z,9.50
2023-05-23T11:37:06.925Z,9.13
2023-05-23T11:40:33.049Z,8.30
2023-05-23T11:43:36.243Z,8.07
2023-05-23T11:46:41.554Z,8.63
2023-05-23T11:49:46.574Z,8.00
2023-05-23T11:52:52.401Z,7.13
2023-05-23T11:55:58.379Z,6.83
2023-05-23T11:59:01.621Z,6.50
2023-05-23T12:02:07.950Z,5.53
2023-05-23T12:05:13.574Z,5.40
2023-05-23T12:08:16.752Z,6.33
2023-05-23T12:11:20.136Z,6.20
2023-05-23T12:14:23.476Z,5.10
2023-05-23T12:17:29.233Z,5.03
2023-05-23T12:20:35.077Z,5.20
2023-05-23T12:23:38.276Z,5.33
2023-05-23T12:26:48.499Z,5.63
2023-05-23T12:29:52.815Z,6.00
2023-05-23T12:32:57.494Z,7.73
2023-05-23T12:36:00.999Z,7.37
2023-05-23T12:39:04.881Z,7.80
2023-05-23T12:42:11.438Z,8.27
2023-05-23T12:45:15.791Z,8.07
2023-05-23T12:48:20.384Z,8.20
2023-05-23T12:51:23.686Z,7.03
2023-05-23T12:54:26.903Z,6.90
2023-05-23T12:57:30.102Z,6.97
2023-05-23T13:00:33.301Z,6.23
2023-05-23T13:03:37.807Z,7.77
2023-05-23T13:06:41.034Z,8.30
2023-05-23T13:09:44.393Z,7.70
2023-05-23T13:12:47.573Z,7.83
2023-05-23T13:15:51.811Z,7.70
2023-05-23T13:18:56.631Z,8.30
2023-05-23T13:22:00.570Z,8.47
2023-05-23T13:25:03.895Z,7.77
2023-05-23T13:28:07.208Z,7.20
2023-05-23T13:31:10.378Z,8.70
2023-05-23T13:34:15.113Z,8.30
2023-05-23T13:37:18.261Z,8.87
2023-05-23T13:40:22.376Z,8.67
2023-05-23T13:43:25.557Z,9.63
2023-05-23T13:46:28.933Z,9.80
2023-05-23T13:49:33.495Z,9.57
2023-05-23T13:52:37.007Z,9.50
2023-05-23T13:55:40.199Z,9.90
2023-05-23T13:58:46.633Z,10.23
2023-05-23T14:01:49.901Z,10.07
2023-05-23T14:04:54.511Z,11.07
2023-05-23T14:07:57.676Z,11.00
2023-05-23T14:11:00.861Z,9.93
2023-05-23T14:14:03.937Z,9.90
2023-05-23T14:17:07.469Z,9.90
2023-05-23T14:20:12.965Z,10.23
2023-05-23T14:23:16.130Z,10.30
2023-05-23T14:26:19.280Z,12.30
2023-05-23T14:29:22.696Z,9.77
2023-05-23T14:32:26.120Z,11.27
2023-05-23T14:35:30.845Z,10.77
2023-05-23T14:38:34.007Z,9.87
2023-05-23T14:41:37.173Z,10.27
2023-05-23T14:44:40.322Z,9.37
2023-05-23T14:47:43.503Z,10.80
2023-05-23T14:50:48.089Z,9.93
2023-05-23T14:53:51.431Z,11.20
2023-05-23T14:56:54.647Z,10.43
2023-05-23T14:59:57.866Z,10.57
2023-05-23T15:03:01.131Z,10.40
2023-05-23T15:06:06.692Z,10.80
2023-05-23T15:09:10.736Z,11.50
2023-05-23T15:12:15.336Z,10.70
2023-05-23T15:15:22.991Z,9.73
2023-05-23T15:18:39.573Z,9.70
2023-05-23T15:21:50.959Z,10.47
2023-05-23T15:24:54.909Z,10.80
2023-05-23T15:27:58.065Z,11.30
2023-05-23T15:31:01.233Z,9.73
2023-05-23T15:34:04.378Z,9.93
2023-05-23T15:37:12.680Z,11.23
2023-05-23T15:40:15.837Z,9.97
2023-05-23T15:43:19.065Z,9.37
2023-05-23T15:46:22.232Z,8.93
2023-05-23T15:49:26.844Z,9.37
2023-05-23T15:52:31.823Z,9.30
2023-05-23T15:55:40.586Z,9.17
2023-05-23T15:58:45.534Z,8.60
2023-05-23T16:01:48.689Z,9.40
2023-05-23T16:04:51.973Z,9.87
2023-05-23T16:07:59.333Z,9.93
2023-05-23T16:11:02.569Z,10.20
2023-05-23T16:14:06.890Z,10.30
2023-05-23T16:17:10.233Z,9.60
2023-05-23T16:20:13.793Z,8.50
2023-05-23T16:23:18.317Z,8.30
2023-05-23T16:26:21.595Z,9.23
2023-05-23T16:29:24.738Z,8.40
2023-05-23T16:32:29.692Z,8.00
2023-05-23T16:35:36.156Z,8.37
2023-05-23T16:38:40.792Z,9.30
2023-05-23T16:41:43.921Z,9.30
2023-05-23T16:44:47.130Z,9.23
2023-05-23T16:47:50.398Z,9.00
2023-05-23T16:50:55.015Z,10.33
2023-05-23T16:53:59.735Z,8.50
2023-05-23T16:57:04.113Z,8.43
2023-05-23T17:00:08.980Z,8.63
2023-05-23T17:03:12.262Z,8.37
2023-05-23T17:06:15.403Z,8.47
2023-05-23T17:09:21.524Z,9.50
2023-05-23T17:12:24.730Z,10.47
2023-05-23T17:15:27.877Z,10.23
2023-05-23T17:18:31.100Z,9.70
2023-05-23T17:21:34.414Z,10.10
2023-05-23T17:24:38.991Z,10.90
2023-05-23T17:27:42.195Z,10.50
2023-05-23T17:30:45.376Z,9.20
2023-05-23T17:33:48.556Z,11.00
2023-05-23T17:36:52.814Z,10.90
2023-05-23T17:39:57.960Z,10.73
2023-05-23T17:43:01.379Z,9.80
2023-05-23T17:46:04.606Z,9.80
2023-05-23T17:49:08.348Z,10.47
2023-05-23T17:52:14.889Z,11.03
2023-05-23T17:55:19.603Z,10.33
2023-05-23T17:58:22.763Z,10.70
2023-05-23T18:01:26.294Z,11.10
2023-05-23T18:04:29.922Z,11.00
2023-05-23T18:07:33.126Z,10.77
2023-05-23T18:10:37.961Z,11.10
2023-05-23T18:13:41.109Z,12.43
2023-05-23T18:16:44.363Z,12.57
2023-05-23T18:19:48.021Z,11.20
2023-05-23T18:22:54.039Z,11.23
2023-05-23T18:25:59.429Z,10.70
2023-05-23T18:29:04.595Z,10.40
2023-05-23T18:32:08.379Z,11.43
2023-05-23T18:35:11.616Z,11.13
2023-05-23T18:38:14.824Z,10.97
2023-05-23T18:41:19.355Z,11.23
2023-05-23T18:44:23.671Z,10.70
2023-05-23T18:47:26.879Z,11.60
2023-05-23T18:50:30.107Z,12.30
2023-05-23T18:53:33.245Z,12.67
2023-05-23T18:56:37.819Z,12.63
2023-05-23T18:59:41.280Z,11.90
2023-05-23T19:02:45.771Z,12.70
2023-05-23T19:05:49.074Z,11.53
2023-05-23T19:08:52.394Z,12.73
2023-05-23T19:11:57.056Z,11.87
2023-05-23T19:15:00.207Z,9.70
2023-05-23T19:18:03.444Z,9.90
2023-05-23T19:21:06.917Z,9.63
2023-05-23T19:24:10.232Z,9.00
2023-05-23T19:27:16.276Z,9.00
2023-05-23T19:30:19.773Z,8.93
2023-05-23T19:33:23.315Z,10.40
2023-05-23T19:36:26.454Z,9.03
2023-05-23T19:39:29.812Z,8.47
2023-05-23T19:42:34.474Z,9.20
2023-05-23T19:45:37.929Z,8.40
2023-05-23T19:48:41.176Z,9.87
2023-05-23T19:51:44.398Z,9.60
2023-05-23T19:54:47.573Z,8.77
2023-05-23T19:57:52.672Z,9.30
2023-05-23T20:00:55.932Z,9.67
2023-05-23T20:03:59.164Z,9.73
2023-05-23T20:07:02.380Z,9.73
2023-05-23T20:10:09.438Z,10.00
2023-05-23T20:13:14.148Z,10.57
2023-05-23T20:16:17.580Z,9.00
2023-05-23T20:19:20.819Z,9.83
2023-05-23T20:22:24.018Z,9.87
2023-05-23T20:25:28.565Z,8.63
2023-05-23T20:28:33.506Z,8.70
2023-05-23T20:31:36.722Z,9.63
2023-05-23T20:34:40.036Z,9.17
2023-05-23T20:37:44.091Z,9.47
2023-05-23T20:40:49.236Z,9.37
2023-05-23T20:43:55.590Z,8.57
2023-05-23T20:46:58.752Z,9.47
2023-05-23T20:50:03.229Z,9.50
2023-05-23T20:53:07.467Z,8.90
2023-05-23T20:56:11.258Z,9.10
2023-05-23T20:59:16.511Z,9.30
2023-05-23T21:02:19.781Z,9.50
2023-05-23T21:05:22.981Z,8.17
2023-05-23T21:08:26.190Z,7.70
2023-05-23T21:11:29.612Z,8.43
2023-05-23T21:14:34.160Z,9.20
2023-05-23T21:17:37.314Z,8.87
2023-05-23T21:20:40.680Z,8.97
2023-05-23T21:23:44.166Z,8.87
2023-05-23T21:26:47.278Z,7.83
2023-05-23T21:29:51.850Z,9.30
2023-05-23T21:32:58.588Z,8.00
2023-05-23T21:36:01.809Z,8.50
2023-05-23T21:39:05.134Z,8.10
2023-05-23T21:42:08.925Z,7.03
2023-05-23T21:45:13.725Z,7.67
2023-05-23T21:48:16.867Z,8.33
2023-05-23T21:51:19.990Z,7.40
2023-05-23T21:54:23.194Z,7.20
2023-05-23T21:57:26.371Z,7.73
2023-05-23T22:00:31.156Z,8.00
2023-05-23T22:03:34.451Z,7.50
2023-05-23T22:06:38.464Z,7.33
2023-05-23T22:09:41.628Z,8.00
2023-05-23T22:12:44.833Z,8.03
2023-05-23T22:15:49.358Z,8.33
2023-05-23T22:18:52.595Z,9.63
2023-05-23T22:21:55.752Z,9.90
2023-05-23T22:24:58.950Z,8.20
2023-05-23T22:28:02.350Z,9.17
2023-05-23T22:31:06.905Z,8.40
2023-05-23T22:34:10.123Z,7.80
2023-05-23T22:37:15.698Z,8.17
2023-05-23T22:40:18.841Z,9.07
2023-05-23T22:43:22.504Z,8.17
2023-05-23T22:46:27.081Z,7.97
2023-05-23T22:49:31.214Z,9.20
2023-05-23T22:52:34.642Z,9.23
2023-05-23T22:55:37.936Z,9.30
2023-05-23T22:58:41.061Z,7.40
2023-05-23T23:01:46.471Z,9.30
2023-05-23T23:04:49.595Z,8.57
2023-05-23T23:07:52.768Z,8.37
2023-05-23T23:10:55.899Z,8.57
2023-05-23T23:13:59.960Z,9.07
2023-05-23T23:17:05.113Z,8.50
2023-05-23T23:20:10.454Z,9.20
2023-05-23T23:23:13.709Z,9.37
2023-05-23T23:26:16.935Z,8.33
2023-05-23T23:29:20.280Z,9.73
2023-05-23T23:32:25.019Z,8.53
2023-05-23T23:35:28.165Z,8.37
2023-05-23T23:38:31.319Z,8.70
2023-05-23T23:41:34.836Z,8.40
2023-05-23T23:44:37.959Z,7.97
2023-05-23T23:47:42.930Z,10.00
2023-05-23T23:50:46.778Z,9.17
2023-05-23T23:53:52.431Z,8.93
2023-05-23T23:56:56.863Z,8.17
